sensor_id;sensor_type;location;lat;lon;timestamp;pressure;altitude;pressure_sealevel;temperature;humidity
41264;BME280;26998;48.714;9.414;2023-03-03T00:00:24;99311.31;;;1.63;100.00
41264;BME280;26998;48.714;9.414;2023-03-03T00:02:50;99319.47;;;1.59;100.00
41264;BME280;26998;48.714;9.414;2023-03-03T00:05:17;99321.78;;;1.53;100.00
41264;BME280;26998;48.714;9.414;2023-03-03T00:07:44;99324.94;;;1.47;100.00
41264;BME280;26998;48.714;9.414;2023-03-03T00:10:11;99334.75;;;1.45;100.00
41264;BME280;26998;48.714;9.414;2023-03-03T00:12:47;99334.75;;;1.45;100.00
41264;BME280;26998;48.714;9.414;2023-03-03T00:15:24;99342.06;;;1.41;100.00
41264;BME280;26998;48.714;9.414;2023-03-03T00:17:51;99352.03;;;1.37;100.00
41264;BME280;26998;48.714;9.414;2023-03-03T00:22:48;99357.09;;;1.29;100.00
41264;BME280;26998;48.714;9.414;2023-03-03T00:27:44;99363.94;;;1.21;100.00
41264;BME280;26998;48.714;9.414;2023-03-03T00:30:23;99370.28;;;1.18;100.00
41264;BME280;26998;48.714;9.414;2023-03-03T00:32:50;99384.16;;;1.20;100.00
41264;BME280;26998;48.714;9.414;2023-03-03T00:35:27;99377.25;;;1.19;100.00
41264;BME280;26998;48.714;9.414;2023-03-03T00:38:09;99377.03;;;1.11;100.00
41264;BME280;26998;48.714;9.414;2023-03-03T00:40:38;99390.56;;;1.06;100.00
41264;BME280;26998;48.714;9.414;2023-03-03T00:43:25;99385.81;;;1.00;100.00
41264;BME280;26998;48.714;9.414;2023-03-03T00:45:55;99391.19;;;0.99;100.00
41264;BME280;26998;48.714;9.414;2023-03-03T00:50:59;99381.06;;;0.83;100.00
41264;BME280;26998;48.714;9.414;2023-03-03T00:53:28;99384.16;;;0.77;100.00
41264;BME280;26998;48.714;9.414;2023-03-03T00:55:56;99391.72;;;0.70;100.00
41264;BME280;26998;48.714;9.414;2023-03-03T00:58:24;99400.81;;;0.66;100.00
41264;BME280;26998;48.714;9.414;2023-03-03T01:00:52;99398.44;;;0.63;100.00
41264;BME280;26998;48.714;9.414;2023-03-03T01:03:21;99399.84;;;0.56;100.00
41264;BME280;26998;48.714;9.414;2023-03-03T01:05:49;99412.41;;;0.52;100.00
41264;BME280;26998;48.714;9.414;2023-03-03T01:08:16;99410.41;;;0.44;100.00
41264;BME280;26998;48.714;9.414;2023-03-03T01:10:57;99424.47;;;0.43;100.00
41264;BME280;26998;48.714;9.414;2023-03-03T01:13:27;99424.72;;;0.40;100.00
41264;BME280;26998;48.714;9.414;2023-03-03T01:15:55;99413.84;;;0.34;100.00
41264;BME280;26998;48.714;9.414;2023-03-03T01:18:21;99427.13;;;0.32;100.00
41264;BME280;26998;48.714;9.414;2023-03-03T01:20:48;99425.34;;;0.33;100.00
41264;BME280;26998;48.714;9.414;2023-03-03T01:23:15;99433.59;;;0.28;100.00
41264;BME280;26998;48.714;9.414;2023-03-03T01:25:41;99414.94;;;0.20;100.00
41264;BME280;26998;48.714;9.414;2023-03-03T01:28:08;99422.31;;;0.15;100.00
41264;BME280;26998;48.714;9.414;2023-03-03T01:30:35;99423.63;;;0.09;100.00
41264;BME280;26998;48.714;9.414;2023-03-03T01:33:02;99432.47;;;0.08;100.00
41264;BME280;26998;48.714;9.414;2023-03-03T01:35:29;99430.69;;;-0.03;100.00
41264;BME280;26998;48.714;9.414;2023-03-03T01:37:56;99436.28;;;-0.07;100.00
41264;BME280;26998;48.714;9.414;2023-03-03T01:40:29;99429.84;;;-0.03;100.00
41264;BME280;26998;48.714;9.414;2023-03-03T01:42:58;99430.78;;;-0.15;100.00
41264;BME280;26998;48.714;9.414;2023-03-03T01:45:31;99437.91;;;-0.17;100.00
41264;BME280;26998;48.714;9.414;2023-03-03T01:48:30;99436.72;;;-0.25;100.00
41264;BME280;26998;48.714;9.414;2023-03-03T01:51:01;99429.41;;;-0.32;100.00
41264;BME280;26998;48.714;9.414;2023-03-03T01:53:43;99444.56;;;-0.36;100.00
41264;BME280;26998;48.714;9.414;2023-03-03T01:56:11;99440.34;;;-0.38;100.00
41264;BME280;26998;48.714;9.414;2023-03-03T01:58:41;99435.47;;;-0.43;100.00
41264;BME280;26998;48.714;9.414;2023-03-03T02:01:25;99434.84;;;-0.47;100.00
41264;BME280;26998;48.714;9.414;2023-03-03T02:03:53;99436.53;;;-0.45;100.00
41264;BME280;26998;48.714;9.414;2023-03-03T02:06:23;99429.59;;;-0.47;100.00
41264;BME280;26998;48.714;9.414;2023-03-03T02:09:12;99434.72;;;-0.45;100.00
41264;BME280;26998;48.714;9.414;2023-03-03T02:11:41;99430.31;;;-0.44;100.00
41264;BME280;26998;48.714;9.414;2023-03-03T02:14:10;99417.78;;;-0.41;100.00
41264;BME280;26998;48.714;9.414;2023-03-03T02:16:38;99420.31;;;-0.39;100.00
41264;BME280;26998;48.714;9.414;2023-03-03T02:19:14;99414.69;;;-0.46;100.00
41264;BME280;26998;48.714;9.414;2023-03-03T02:21:43;99409.53;;;-0.48;100.00
41264;BME280;26998;48.714;9.414;2023-03-03T02:24:37;99402.63;;;-0.49;100.00
41264;BME280;26998;48.714;9.414;2023-03-03T02:27:08;99401.41;;;-0.44;100.00
41264;BME280;26998;48.714;9.414;2023-03-03T02:29:34;99408.13;;;-0.40;100.00
41264;BME280;26998;48.714;9.414;2023-03-03T02:32:01;99402.75;;;-0.39;100.00
41264;BME280;26998;48.714;9.414;2023-03-03T02:34:28;99396.44;;;-0.36;100.00
41264;BME280;26998;48.714;9.414;2023-03-03T02:36:54;99405.28;;;-0.37;100.00
41264;BME280;26998;48.714;9.414;2023-03-03T02:39:25;99393.47;;;-0.32;100.00
41264;BME280;26998;48.714;9.414;2023-03-03T02:42:06;99401.09;;;-0.29;100.00
41264;BME280;26998;48.714;9.414;2023-03-03T02:44:33;99406.25;;;-0.27;100.00
41264;BME280;26998;48.714;9.414;2023-03-03T02:47:00;99409.72;;;-0.27;100.00
41264;BME280;26998;48.714;9.414;2023-03-03T02:49:32;99397.78;;;-0.31;100.00
41264;BME280;26998;48.714;9.414;2023-03-03T02:52:00;99400.31;;;-0.18;100.00
41264;BME280;26998;48.714;9.414;2023-03-03T02:54:28;99404.28;;;-0.12;100.00
41264;BME280;26998;48.714;9.414;2023-03-03T02:56:56;99409.28;;;-0.09;100.00
41264;BME280;26998;48.714;9.414;2023-03-03T02:59:23;99404.88;;;-0.09;100.00
41264;BME280;26998;48.714;9.414;2023-03-03T03:01:50;99402.81;;;-0.16;100.00
41264;BME280;26998;48.714;9.414;2023-03-03T03:04:22;99406.75;;;-0.11;100.00
41264;BME280;26998;48.714;9.414;2023-03-03T03:06:50;99408.19;;;-0.07;100.00
41264;BME280;26998;48.714;9.414;2023-03-03T03:09:17;99412.28;;;-0.03;100.00
41264;BME280;26998;48.714;9.414;2023-03-03T03:11:45;99412.88;;;0.01;100.00
41264;BME280;26998;48.714;9.414;2023-03-03T03:14:12;99414.91;;;-0.03;100.00
41264;BME280;26998;48.714;9.414;2023-03-03T03:16:39;99413.91;;;-0.13;100.00
41264;BME280;26998;48.714;9.414;2023-03-03T03:19:07;99414.03;;;-0.14;100.00
41264;BME280;26998;48.714;9.414;2023-03-03T03:21:34;99419.56;;;-0.06;100.00
41264;BME280;26998;48.714;9.414;2023-03-03T03:24:00;99418.84;;;0.03;100.00
41264;BME280;26998;48.714;9.414;2023-03-03T03:26:27;99412.50;;;0.06;100.00
41264;BME280;26998;48.714;9.414;2023-03-03T03:28:53;99406.56;;;0.04;100.00
41264;BME280;26998;48.714;9.414;2023-03-03T03:31:20;99409.06;;;0.05;100.00
41264;BME280;26998;48.714;9.414;2023-03-03T03:33:47;99401.06;;;0.07;100.00
41264;BME280;26998;48.714;9.414;2023-03-03T03:36:14;99405.13;;;0.11;100.00
41264;BME280;26998;48.714;9.414;2023-03-03T03:38:40;99415.16;;;0.17;100.00
41264;BME280;26998;48.714;9.414;2023-03-03T03:41:07;99402.03;;;0.17;100.00
41264;BME280;26998;48.714;9.414;2023-03-03T03:43:33;99411.94;;;0.25;100.00
41264;BME280;26998;48.714;9.414;2023-03-03T03:46:00;99408.00;;;0.19;100.00
41264;BME280;26998;48.714;9.414;2023-03-03T03:48:27;99405.63;;;0.16;100.00
41264;BME280;26998;48.714;9.414;2023-03-03T03:50:54;99409.53;;;0.21;100.00
41264;BME280;26998;48.714;9.414;2023-03-03T03:53:21;99410.50;;;0.20;100.00
41264;BME280;26998;48.714;9.414;2023-03-03T03:55:47;99411.13;;;0.13;100.00
41264;BME280;26998;48.714;9.414;2023-03-03T03:58:15;99409.66;;;-0.03;100.00
41264;BME280;26998;48.714;9.414;2023-03-03T04:00:44;99417.88;;;-0.07;100.00
41264;BME280;26998;48.714;9.414;2023-03-03T04:03:11;99425.16;;;-0.11;100.00
41264;BME280;26998;48.714;9.414;2023-03-03T04:05:38;99431.38;;;-0.12;100.00
41264;BME280;26998;48.714;9.414;2023-03-03T04:08:05;99427.56;;;-0.08;100.00
41264;BME280;26998;48.714;9.414;2023-03-03T04:10:31;99426.50;;;-0.05;100.00
41264;BME280;26998;48.714;9.414;2023-03-03T04:12:58;99424.19;;;-0.10;100.00
41264;BME280;26998;48.714;9.414;2023-03-03T04:15:24;99434.34;;;-0.16;100.00
41264;BME280;26998;48.714;9.414;2023-03-03T04:17:51;99425.53;;;-0.15;100.00
41264;BME280;26998;48.714;9.414;2023-03-03T04:20:17;99437.34;;;-0.10;100.00
41264;BME280;26998;48.714;9.414;2023-03-03T04:22:44;99430.91;;;-0.06;100.00
41264;BME280;26998;48.714;9.414;2023-03-03T04:25:14;99435.47;;;0.04;100.00
41264;BME280;26998;48.714;9.414;2023-03-03T04:27:42;99435.47;;;0.15;100.00
41264;BME280;26998;48.714;9.414;2023-03-03T04:30:13;99431.19;;;0.14;100.00
41264;BME280;26998;48.714;9.414;2023-03-03T04:32:41;99433.56;;;0.17;100.00
41264;BME280;26998;48.714;9.414;2023-03-03T04:35:08;99430.47;;;0.23;100.00
41264;BME280;26998;48.714;9.414;2023-03-03T04:37:36;99426.78;;;0.26;100.00
41264;BME280;26998;48.714;9.414;2023-03-03T04:40:05;99430.34;;;0.25;100.00
41264;BME280;26998;48.714;9.414;2023-03-03T04:42:32;99439.69;;;0.29;100.00
41264;BME280;26998;48.714;9.414;2023-03-03T04:44:59;99437.50;;;0.34;100.00
41264;BME280;26998;48.714;9.414;2023-03-03T04:47:25;99435.84;;;0.33;100.00
41264;BME280;26998;48.714;9.414;2023-03-03T04:49:52;99433.22;;;0.33;100.00
41264;BME280;26998;48.714;9.414;2023-03-03T04:52:18;99434.19;;;0.32;100.00
41264;BME280;26998;48.714;9.414;2023-03-03T04:54:45;99437.88;;;0.29;100.00
41264;BME280;26998;48.714;9.414;2023-03-03T04:57:12;99437.06;;;0.29;100.00
41264;BME280;26998;48.714;9.414;2023-03-03T04:59:38;99431.31;;;0.23;100.00
41264;BME280;26998;48.714;9.414;2023-03-03T05:02:05;99448.41;;;0.29;100.00
41264;BME280;26998;48.714;9.414;2023-03-03T05:04:32;99451.50;;;0.34;100.00
41264;BME280;26998;48.714;9.414;2023-03-03T05:06:58;99454.75;;;0.38;100.00
41264;BME280;26998;48.714;9.414;2023-03-03T05:09:25;99458.66;;;0.43;100.00
41264;BME280;26998;48.714;9.414;2023-03-03T05:11:51;99455.69;;;0.48;100.00
41264;BME280;26998;48.714;9.414;2023-03-03T05:14:18;99454.50;;;0.52;100.00
41264;BME280;26998;48.714;9.414;2023-03-03T05:16:45;99459.91;;;0.51;100.00
41264;BME280;26998;48.714;9.414;2023-03-03T05:19:11;99451.88;;;0.52;100.00
41264;BME280;26998;48.714;9.414;2023-03-03T05:21:38;99450.81;;;0.55;100.00
41264;BME280;26998;48.714;9.414;2023-03-03T05:24:04;99443.03;;;0.53;100.00
41264;BME280;26998;48.714;9.414;2023-03-03T05:26:31;99443.97;;;0.52;100.00
41264;BME280;26998;48.714;9.414;2023-03-03T05:28:57;99448.16;;;0.55;100.00
41264;BME280;26998;48.714;9.414;2023-03-03T05:31:24;99448.91;;;0.57;100.00
41264;BME280;26998;48.714;9.414;2023-03-03T05:33:51;99450.81;;;0.55;100.00
41264;BME280;26998;48.714;9.414;2023-03-03T05:36:18;99453.44;;;0.55;100.00
41264;BME280;26998;48.714;9.414;2023-03-03T05:38:44;99442.91;;;0.55;100.00
41264;BME280;26998;48.714;9.414;2023-03-03T05:41:11;99447.44;;;0.53;100.00
41264;BME280;26998;48.714;9.414;2023-03-03T05:43:38;99454.16;;;0.57;100.00
41264;BME280;26998;48.714;9.414;2023-03-03T05:46:04;99460.50;;;0.65;100.00
41264;BME280;26998;48.714;9.414;2023-03-03T05:48:31;99457.25;;;0.62;100.00
41264;BME280;26998;48.714;9.414;2023-03-03T05:50:58;99469.31;;;0.64;100.00
41264;BME280;26998;48.714;9.414;2023-03-03T05:53:25;99467.78;;;0.62;100.00
41264;BME280;26998;48.714;9.414;2023-03-03T05:55:52;99470.53;;;0.60;100.00
41264;BME280;26998;48.714;9.414;2023-03-03T05:58:19;99475.41;;;0.65;100.00
41264;BME280;26998;48.714;9.414;2023-03-03T06:00:46;99465.63;;;0.67;100.00
41264;BME280;26998;48.714;9.414;2023-03-03T06:03:13;99460.22;;;0.68;100.00
41264;BME280;26998;48.714;9.414;2023-03-03T06:05:39;99466.13;;;0.72;100.00
41264;BME280;26998;48.714;9.414;2023-03-03T06:08:06;99471.00;;;0.77;100.00
41264;BME280;26998;48.714;9.414;2023-03-03T06:10:32;99471.13;;;0.75;100.00
41264;BME280;26998;48.714;9.414;2023-03-03T06:12:59;99469.47;;;0.63;100.00
41264;BME280;26998;48.714;9.414;2023-03-03T06:15:26;99481.66;;;0.64;100.00
41264;BME280;26998;48.714;9.414;2023-03-03T06:17:52;99492.31;;;0.62;100.00
41264;BME280;26998;48.714;9.414;2023-03-03T06:20:19;99488.22;;;0.58;100.00
41264;BME280;26998;48.714;9.414;2023-03-03T06:22:46;99492.41;;;0.61;100.00
41264;BME280;26998;48.714;9.414;2023-03-03T06:25:13;99485.25;;;0.63;100.00
41264;BME280;26998;48.714;9.414;2023-03-03T06:27:39;99486.81;;;0.65;100.00
41264;BME280;26998;48.714;9.414;2023-03-03T06:30:06;99488.56;;;0.65;100.00
41264;BME280;26998;48.714;9.414;2023-03-03T06:32:33;99495.41;;;0.67;100.00
41264;BME280;26998;48.714;9.414;2023-03-03T06:35:00;99493.59;;;0.68;100.00
41264;BME280;26998;48.714;9.414;2023-03-03T06:37:26;99495.06;;;0.72;100.00
41264;BME280;26998;48.714;9.414;2023-03-03T06:39:53;99504.00;;;0.81;100.00
41264;BME280;26998;48.714;9.414;2023-03-03T06:42:20;99510.59;;;0.86;100.00
41264;BME280;26998;48.714;9.414;2023-03-03T06:44:46;99503.28;;;0.90;100.00
41264;BME280;26998;48.714;9.414;2023-03-03T06:47:13;99508.41;;;1.03;100.00
41264;BME280;26998;48.714;9.414;2023-03-03T06:49:39;99495.88;;;1.06;100.00
41264;BME280;26998;48.714;9.414;2023-03-03T06:52:18;99485.78;;;1.11;100.00
41264;BME280;26998;48.714;9.414;2023-03-03T06:54:45;99491.16;;;1.21;100.00
41264;BME280;26998;48.714;9.414;2023-03-03T06:57:23;99486.84;;;1.20;100.00
41264;BME280;26998;48.714;9.414;2023-03-03T06:59:53;99491.13;;;1.44;100.00
41264;BME280;26998;48.714;9.414;2023-03-03T07:02:21;99484.66;;;1.36;100.00
41264;BME280;26998;48.714;9.414;2023-03-03T07:04:47;99483.81;;;1.36;100.00
41264;BME280;26998;48.714;9.414;2023-03-03T07:07:24;99483.91;;;1.46;100.00
41264;BME280;26998;48.714;9.414;2023-03-03T07:09:55;99483.88;;;1.57;100.00
41264;BME280;26998;48.714;9.414;2023-03-03T07:12:28;99476.31;;;1.64;100.00
41264;BME280;26998;48.714;9.414;2023-03-03T07:15:15;99476.63;;;1.70;100.00
41264;BME280;26998;48.714;9.414;2023-03-03T07:17:46;99474.66;;;1.83;100.00
41264;BME280;26998;48.714;9.414;2023-03-03T07:20:22;99471.00;;;1.96;100.00
41264;BME280;26998;48.714;9.414;2023-03-03T07:22:49;99468.44;;;2.05;100.00
41264;BME280;26998;48.714;9.414;2023-03-03T07:25:25;99456.94;;;2.06;100.00
41264;BME280;26998;48.714;9.414;2023-03-03T07:27:57;99440.97;;;2.08;100.00
41264;BME280;26998;48.714;9.414;2023-03-03T07:30:27;99438.34;;;2.08;100.00
41264;BME280;26998;48.714;9.414;2023-03-03T07:32:57;99438.91;;;2.12;100.00
41264;BME280;26998;48.714;9.414;2023-03-03T07:35:37;99443.59;;;2.29;100.00
41264;BME280;26998;48.714;9.414;2023-03-03T07:38:37;99424.63;;;2.35;100.00
41264;BME280;26998;48.714;9.414;2023-03-03T07:41:04;99418.13;;;2.49;100.00
41264;BME280;26998;48.714;9.414;2023-03-03T07:43:40;99401.22;;;2.51;100.00
41264;BME280;26998;48.714;9.414;2023-03-03T07:48:41;99380.03;;;2.72;100.00
41264;BME280;26998;48.714;9.414;2023-03-03T07:51:20;99365.47;;;2.88;100.00
41264;BME280;26998;48.714;9.414;2023-03-03T07:53:47;99333.91;;;2.86;100.00
41264;BME280;26998;48.714;9.414;2023-03-03T07:56:21;99331.16;;;2.88;100.00
41264;BME280;26998;48.714;9.414;2023-03-03T07:58:51;99336.72;;;2.85;100.00
41264;BME280;26998;48.714;9.414;2023-03-03T08:04:14;99333.97;;;3.15;100.00
41264;BME280;26998;48.714;9.414;2023-03-03T08:06:48;99316.16;;;3.27;100.00
41264;BME280;26998;48.714;9.414;2023-03-03T08:11:54;99298.78;;;3.34;100.00
41264;BME280;26998;48.714;9.414;2023-03-03T08:14:30;99300.16;;;3.38;100.00
41264;BME280;26998;48.714;9.414;2023-03-03T08:16:59;99287.06;;;3.46;100.00
41264;BME280;26998;48.714;9.414;2023-03-03T08:19:29;99274.00;;;3.45;100.00
41264;BME280;26998;48.714;9.414;2023-03-03T08:22:08;99264.13;;;3.47;100.00
41264;BME280;26998;48.714;9.414;2023-03-03T08:24:37;99244.84;;;3.27;100.00
41264;BME280;26998;48.714;9.414;2023-03-03T08:27:04;99240.09;;;3.40;100.00
41264;BME280;26998;48.714;9.414;2023-03-03T08:29:30;99233.81;;;3.41;100.00
41264;BME280;26998;48.714;9.414;2023-03-03T08:31:58;99238.03;;;3.24;100.00
41264;BME280;26998;48.714;9.414;2023-03-03T08:34:24;99248.28;;;3.37;100.00
41264;BME280;26998;48.714;9.414;2023-03-03T08:36:51;99248.72;;;3.33;100.00
41264;BME280;26998;48.714;9.414;2023-03-03T08:39:18;99240.94;;;3.31;100.00
41264;BME280;26998;48.714;9.414;2023-03-03T08:41:44;99245.91;;;3.44;100.00
41264;BME280;26998;48.714;9.414;2023-03-03T08:44:11;99230.22;;;3.33;100.00
41264;BME280;26998;48.714;9.414;2023-03-03T08:46:38;99228.56;;;3.32;100.00
41264;BME280;26998;48.714;9.414;2023-03-03T08:49:05;99216.31;;;3.40;100.00
41264;BME280;26998;48.714;9.414;2023-03-03T08:51:32;99209.63;;;3.46;100.00
41264;BME280;26998;48.714;9.414;2023-03-03T08:53:58;99208.09;;;3.81;100.00
41264;BME280;26998;48.714;9.414;2023-03-03T08:56:25;99183.31;;;3.82;100.00
41264;BME280;26998;48.714;9.414;2023-03-03T08:58:51;99173.25;;;3.85;100.00
41264;BME280;26998;48.714;9.414;2023-03-03T09:01:29;99170.06;;;4.09;100.00
41264;BME280;26998;48.714;9.414;2023-03-03T09:03:58;99179.81;;;4.09;100.00
41264;BME280;26998;48.714;9.414;2023-03-03T09:06:25;99185.25;;;4.07;100.00
41264;BME280;26998;48.714;9.414;2023-03-03T09:08:52;99186.25;;;4.06;100.00
41264;BME280;26998;48.714;9.414;2023-03-03T09:11:23;99186.78;;;4.10;100.00
41264;BME280;26998;48.714;9.414;2023-03-03T09:13:52;99184.19;;;4.46;100.00
41264;BME280;26998;48.714;9.414;2023-03-03T09:16:19;99189.31;;;4.47;100.00
41264;BME280;26998;48.714;9.414;2023-03-03T09:18:47;99188.19;;;4.50;100.00
41264;BME280;26998;48.714;9.414;2023-03-03T09:21:24;99181.16;;;4.58;100.00
41264;BME280;26998;48.714;9.414;2023-03-03T09:23:59;99169.78;;;4.84;100.00
41264;BME280;26998;48.714;9.414;2023-03-03T09:26:42;99168.25;;;4.81;100.00
41264;BME280;26998;48.714;9.414;2023-03-03T09:31:51;99160.84;;;5.37;100.00
41264;BME280;26998;48.714;9.414;2023-03-03T09:34:22;99157.94;;;5.22;100.00
41264;BME280;26998;48.714;9.414;2023-03-03T09:36:51;99153.47;;;5.49;100.00
41264;BME280;26998;48.714;9.414;2023-03-03T09:39:22;99150.19;;;5.55;100.00
41264;BME280;26998;48.714;9.414;2023-03-03T09:48:23;99147.91;;;5.68;100.00
41264;BME280;26998;48.714;9.414;2023-03-03T09:53:42;99136.66;;;6.09;100.00
41264;BME280;26998;48.714;9.414;2023-03-03T09:56:27;99139.00;;;6.44;100.00
41264;BME280;26998;48.714;9.414;2023-03-03T09:59:02;99139.84;;;6.69;100.00
41264;BME280;26998;48.714;9.414;2023-03-03T10:10:38;99136.84;;;7.05;100.00
41264;BME280;26998;48.714;9.414;2023-03-03T10:23:55;99125.91;;;6.92;100.00
41264;BME280;26998;48.714;9.414;2023-03-03T10:32:29;99130.56;;;7.54;100.00
41264;BME280;26998;48.714;9.414;2023-03-03T10:35:14;99119.34;;;7.75;99.58
41264;BME280;26998;48.714;9.414;2023-03-03T10:46:32;99115.34;;;7.39;100.00
41264;BME280;26998;48.714;9.414;2023-03-03T10:49:13;99114.25;;;7.17;100.00
41264;BME280;26998;48.714;9.414;2023-03-03T10:55:03;99109.53;;;7.75;100.00
41264;BME280;26998;48.714;9.414;2023-03-03T11:00:23;99104.22;;;8.06;98.05
41264;BME280;26998;48.714;9.414;2023-03-03T11:03:00;99110.84;;;8.10;97.18
41264;BME280;26998;48.714;9.414;2023-03-03T11:05:54;99108.22;;;8.02;94.85
41264;BME280;26998;48.714;9.414;2023-03-03T11:08:29;99105.13;;;8.68;95.56
41264;BME280;26998;48.714;9.414;2023-03-03T11:11:28;99117.44;;;8.92;94.35
41264;BME280;26998;48.714;9.414;2023-03-03T11:14:11;99108.66;;;8.83;94.88
41264;BME280;26998;48.714;9.414;2023-03-03T11:25:26;99108.06;;;9.11;90.24
41264;BME280;26998;48.714;9.414;2023-03-03T11:27:59;99113.91;;;9.95;84.91
41264;BME280;26998;48.714;9.414;2023-03-03T11:33:02;99106.97;;;9.49;85.41
41264;BME280;26998;48.714;9.414;2023-03-03T11:35:40;99108.72;;;9.28;85.02
41264;BME280;26998;48.714;9.414;2023-03-03T11:38:50;99106.63;;;9.38;87.25
41264;BME280;26998;48.714;9.414;2023-03-03T11:41:41;99114.38;;;9.84;82.26
41264;BME280;26998;48.714;9.414;2023-03-03T11:44:28;99114.88;;;9.28;86.82
41264;BME280;26998;48.714;9.414;2023-03-03T11:47:16;99102.84;;;9.47;87.11
41264;BME280;26998;48.714;9.414;2023-03-03T11:50:07;99105.69;;;9.45;87.41
41264;BME280;26998;48.714;9.414;2023-03-03T11:55:38;99094.19;;;9.45;85.51
41264;BME280;26998;48.714;9.414;2023-03-03T12:01:07;99077.25;;;9.53;85.87
41264;BME280;26998;48.714;9.414;2023-03-03T12:03:48;99074.38;;;10.05;86.02
41264;BME280;26998;48.714;9.414;2023-03-03T12:09:27;99072.50;;;9.04;89.39
41264;BME280;26998;48.714;9.414;2023-03-03T12:15:01;99067.03;;;9.56;87.48
41264;BME280;26998;48.714;9.414;2023-03-03T12:17:42;99070.63;;;9.63;88.54
41264;BME280;26998;48.714;9.414;2023-03-03T12:20:31;99073.91;;;9.65;84.28
41264;BME280;26998;48.714;9.414;2023-03-03T12:23:14;99074.84;;;9.73;82.64
41264;BME280;26998;48.714;9.414;2023-03-03T12:25:51;99071.91;;;9.53;80.51
41264;BME280;26998;48.714;9.414;2023-03-03T12:28:37;99068.94;;;9.77;79.71
41264;BME280;26998;48.714;9.414;2023-03-03T12:33:54;99068.75;;;9.79;78.68
41264;BME280;26998;48.714;9.414;2023-03-03T12:47:53;99054.91;;;9.24;83.67
41264;BME280;26998;48.714;9.414;2023-03-03T12:50:35;99052.47;;;9.22;84.38
41264;BME280;26998;48.714;9.414;2023-03-03T12:56:25;99054.72;;;9.55;84.33
41264;BME280;26998;48.714;9.414;2023-03-03T13:06:52;99048.91;;;9.66;82.85
41264;BME280;26998;48.714;9.414;2023-03-03T13:12:45;99040.41;;;9.99;82.19
41264;BME280;26998;48.714;9.414;2023-03-03T13:15:21;99046.50;;;10.29;79.77
41264;BME280;26998;48.714;9.414;2023-03-03T13:21:12;99043.47;;;10.32;79.38
41264;BME280;26998;48.714;9.414;2023-03-03T13:26:35;99042.72;;;10.02;80.10
41264;BME280;26998;48.714;9.414;2023-03-03T13:31:38;99033.56;;;9.54;80.13
41264;BME280;26998;48.714;9.414;2023-03-03T13:34:07;99035.84;;;9.93;79.24
41264;BME280;26998;48.714;9.414;2023-03-03T13:39:22;99032.56;;;10.12;77.65
41264;BME280;26998;48.714;9.414;2023-03-03T13:42:32;99033.16;;;9.93;78.10
41264;BME280;26998;48.714;9.414;2023-03-03T13:45:14;99028.69;;;9.42;83.32
41264;BME280;26998;48.714;9.414;2023-03-03T13:48:35;99033.22;;;9.27;86.32
41264;BME280;26998;48.714;9.414;2023-03-03T13:51:22;99028.88;;;9.77;83.45
41264;BME280;26998;48.714;9.414;2023-03-03T13:54:04;99031.25;;;9.87;81.10
41264;BME280;26998;48.714;9.414;2023-03-03T13:59:33;99027.66;;;10.16;78.85
41264;BME280;26998;48.714;9.414;2023-03-03T14:05:15;99023.50;;;9.92;78.50
41264;BME280;26998;48.714;9.414;2023-03-03T14:11:10;99028.44;;;10.10;80.27
41264;BME280;26998;48.714;9.414;2023-03-03T14:17:04;99020.81;;;9.70;78.66
41264;BME280;26998;48.714;9.414;2023-03-03T14:19:58;99015.72;;;9.54;81.55
41264;BME280;26998;48.714;9.414;2023-03-03T14:22:45;99012.75;;;9.64;79.51
41264;BME280;26998;48.714;9.414;2023-03-03T14:25:17;99008.75;;;10.17;77.67
41264;BME280;26998;48.714;9.414;2023-03-03T14:33:15;99012.06;;;9.98;74.76
41264;BME280;26998;48.714;9.414;2023-03-03T14:38:20;99007.69;;;10.12;77.08
41264;BME280;26998;48.714;9.414;2023-03-03T14:41:33;99010.41;;;10.40;74.37
41264;BME280;26998;48.714;9.414;2023-03-03T14:43:56;99001.78;;;10.16;73.77
41264;BME280;26998;48.714;9.414;2023-03-03T14:48:56;99007.81;;;9.82;74.10
41264;BME280;26998;48.714;9.414;2023-03-03T14:53:59;99012.72;;;10.00;75.90
41264;BME280;26998;48.714;9.414;2023-03-03T14:56:36;99002.41;;;9.76;74.77
41264;BME280;26998;48.714;9.414;2023-03-03T15:01:40;99003.78;;;9.71;76.83
41264;BME280;26998;48.714;9.414;2023-03-03T15:06:43;98997.91;;;9.98;75.79
41264;BME280;26998;48.714;9.414;2023-03-03T15:11:52;98996.78;;;9.70;75.93
41264;BME280;26998;48.714;9.414;2023-03-03T15:14:24;98995.94;;;9.48;76.02
41264;BME280;26998;48.714;9.414;2023-03-03T15:16:56;98998.53;;;9.42;76.58
41264;BME280;26998;48.714;9.414;2023-03-03T15:19:41;98995.88;;;9.42;78.42
41264;BME280;26998;48.714;9.414;2023-03-03T15:22:19;98992.09;;;9.21;78.58
41264;BME280;26998;48.714;9.414;2023-03-03T15:25:03;98992.47;;;9.18;78.96
41264;BME280;26998;48.714;9.414;2023-03-03T15:27:38;98989.94;;;9.10;78.39
41264;BME280;26998;48.714;9.414;2023-03-03T15:32:48;98998.09;;;9.09;82.44
41264;BME280;26998;48.714;9.414;2023-03-03T15:38:40;98991.13;;;9.08;80.43
41264;BME280;26998;48.714;9.414;2023-03-03T15:40:48;98996.75;;;8.98;80.74
41264;BME280;26998;48.714;9.414;2023-03-03T15:43:30;98994.53;;;8.87;80.92
41264;BME280;26998;48.714;9.414;2023-03-03T15:46:13;98993.34;;;8.89;81.25
41264;BME280;26998;48.714;9.414;2023-03-03T15:49:14;98988.53;;;8.85;82.08
41264;BME280;26998;48.714;9.414;2023-03-03T15:57:51;98985.16;;;8.76;83.38
41264;BME280;26998;48.714;9.414;2023-03-03T16:03:20;98984.94;;;8.63;83.99
41264;BME280;26998;48.714;9.414;2023-03-03T16:05:55;98992.31;;;8.61;85.57
41264;BME280;26998;48.714;9.414;2023-03-03T16:08:49;98982.84;;;8.58;85.43
41264;BME280;26998;48.714;9.414;2023-03-03T16:16:46;98991.63;;;8.44;85.97
41264;BME280;26998;48.714;9.414;2023-03-03T16:28:10;99005.31;;;8.18;89.80
41264;BME280;26998;48.714;9.414;2023-03-03T16:30:52;99013.97;;;8.20;89.24
41264;BME280;26998;48.714;9.414;2023-03-03T16:33:37;99013.09;;;8.19;90.30
41264;BME280;26998;48.714;9.414;2023-03-03T16:36:45;99018.06;;;8.22;88.69
41264;BME280;26998;48.714;9.414;2023-03-03T16:42:28;99019.53;;;8.10;90.20